sensor_id;sensor_type;location;lat;lon;timestamp;pressure;altitude;pressure_sealevel;temperature;humidity
67987;BME280;54767;53.800;15.956;2023-04-19T00:31:29;101414.67;;;2.80;76.79
67987;BME280;54767;53.800;15.956;2023-04-19T00:34:46;101399.30;;;2.83;76.94
67987;BME280;54767;53.800;15.956;2023-04-19T00:37:14;101394.41;;;2.85;77.09
67987;BME280;54767;53.800;15.956;2023-04-19T00:39:43;101388.33;;;2.85;77.63
67987;BME280;54767;53.800;15.956;2023-04-19T00:42:11;101387.97;;;2.84;77.79
67987;BME280;54767;53.800;15.956;2023-04-19T00:44:41;101385.23;;;2.85;78.50
67987;BME280;54767;53.800;15.956;2023-04-19T00:47:09;101379.89;;;2.85;78.39
67987;BME280;54767;53.800;15.956;2023-04-19T00:49:38;101378.11;;;2.88;78.32
67987;BME280;54767;53.800;15.956;2023-04-19T00:52:06;101374.41;;;2.90;78.43
67987;BME280;54767;53.800;15.956;2023-04-19T00:54:36;101369.36;;;2.92;78.63
67987;BME280;54767;53.800;15.956;2023-04-19T00:57:04;101364.45;;;2.95;79.05
67987;BME280;54767;53.800;15.956;2023-04-19T00:59:34;101365.40;;;2.97;79.28
67987;BME280;54767;53.800;15.956;2023-04-19T01:02:02;101361.63;;;2.97;78.96
67987;BME280;54767;53.800;15.956;2023-04-19T01:04:31;101361.54;;;2.95;79.14
67987;BME280;54767;53.800;15.956;2023-04-19T01:07:14;101364.27;;;2.94;79.77
67987;BME280;54767;53.800;15.956;2023-04-19T01:09:44;101359.08;;;2.94;79.85
67987;BME280;54767;53.800;15.956;2023-04-19T01:12:12;101357.95;;;2.96;79.83
67987;BME280;54767;53.800;15.956;2023-04-19T01:14:41;101349.64;;;2.96;79.89
67987;BME280;54767;53.800;15.956;2023-04-19T01:17:09;101346.75;;;2.97;79.72
67987;BME280;54767;53.800;15.956;2023-04-19T01:19:38;101345.04;;;2.98;79.66
67987;BME280;54767;53.800;15.956;2023-04-19T01:22:07;101344.77;;;2.99;79.64
67987;BME280;54767;53.800;15.956;2023-04-19T01:24:36;101338.40;;;2.99;79.70
67987;BME280;54767;53.800;15.956;2023-04-19T01:27:04;101339.60;;;2.99;79.66
67987;BME280;54767;53.800;15.956;2023-04-19T01:29:33;101340.58;;;2.98;79.91
67987;BME280;54767;53.800;15.956;2023-04-19T01:32:01;101337.55;;;2.97;80.15
67987;BME280;54767;53.800;15.956;2023-04-19T01:34:29;101334.41;;;2.96;79.95
67987;BME280;54767;53.800;15.956;2023-04-19T01:36:57;101330.95;;;2.96;79.98
67987;BME280;54767;53.800;15.956;2023-04-19T01:39:26;101327.52;;;2.96;80.17
67987;BME280;54767;53.800;15.956;2023-04-19T01:41:54;101324.27;;;2.97;79.78
67987;BME280;54767;53.800;15.956;2023-04-19T01:44:22;101327.46;;;2.99;79.78
67987;BME280;54767;53.800;15.956;2023-04-19T01:46:51;101334.95;;;3.00;79.80
67987;BME280;54767;53.800;15.956;2023-04-19T01:49:19;101329.65;;;3.01;79.73
67987;BME280;54767;53.800;15.956;2023-04-19T01:51:47;101329.39;;;3.02;79.67
67987;BME280;54767;53.800;15.956;2023-04-19T01:54:16;101326.63;;;3.03;79.65
67987;BME280;54767;53.800;15.956;2023-04-19T01:56:45;101322.48;;;3.03;79.55
67987;BME280;54767;53.800;15.956;2023-04-19T01:59:13;101318.59;;;3.04;79.33
67987;BME280;54767;53.800;15.956;2023-04-19T02:01:41;101318.01;;;3.07;79.10
67987;BME280;54767;53.800;15.956;2023-04-19T02:04:10;101319.48;;;3.08;79.09
67987;BME280;54767;53.800;15.956;2023-04-19T02:06:38;101322.61;;;3.08;79.21
67987;BME280;54767;53.800;15.956;2023-04-19T02:09:07;101317.93;;;3.09;78.78
67987;BME280;54767;53.800;15.956;2023-04-19T02:11:35;101316.40;;;3.09;78.57
67987;BME280;54767;53.800;15.956;2023-04-19T02:14:03;101306.89;;;3.06;78.82
67987;BME280;54767;53.800;15.956;2023-04-19T02:16:32;101305.15;;;3.02;78.65
67987;BME280;54767;53.800;15.956;2023-04-19T02:19:02;101304.96;;;2.98;78.83
67987;BME280;54767;53.800;15.956;2023-04-19T02:21:31;101305.54;;;2.96;79.06
67987;BME280;54767;53.800;15.956;2023-04-19T02:24:00;101307.35;;;2.94;79.08
67987;BME280;54767;53.800;15.956;2023-04-19T02:26:28;101304.35;;;2.93;78.99
67987;BME280;54767;53.800;15.956;2023-04-19T02:28:56;101300.95;;;2.93;79.48
67987;BME280;54767;53.800;15.956;2023-04-19T02:31:25;101303.21;;;2.94;79.29
67987;BME280;54767;53.800;15.956;2023-04-19T02:33:53;101300.23;;;2.93;79.25
67987;BME280;54767;53.800;15.956;2023-04-19T02:36:21;101291.95;;;2.93;79.03
67987;BME280;54767;53.800;15.956;2023-04-19T02:38:50;101288.16;;;2.93;78.93
67987;BME280;54767;53.800;15.956;2023-04-19T02:41:18;101286.42;;;2.94;79.01
67987;BME280;54767;53.800;15.956;2023-04-19T02:43:47;101281.44;;;2.90;79.03
67987;BME280;54767;53.800;15.956;2023-04-19T02:46:15;101276.58;;;2.87;79.01
67987;BME280;54767;53.800;15.956;2023-04-19T02:48:43;101273.13;;;2.84;78.99
67987;BME280;54767;53.800;15.956;2023-04-19T02:51:15;101270.81;;;2.82;79.08
67987;BME280;54767;53.800;15.956;2023-04-19T02:53:44;101269.98;;;2.83;78.95
67987;BME280;54767;53.800;15.956;2023-04-19T02:56:12;101263.59;;;2.83;79.22
67987;BME280;54767;53.800;15.956;2023-04-19T02:58:41;101259.48;;;2.84;79.23
67987;BME280;54767;53.800;15.956;2023-04-19T03:01:09;101254.12;;;2.84;79.27
67987;BME280;54767;53.800;15.956;2023-04-19T03:03:38;101249.10;;;2.84;79.03
67987;BME280;54767;53.800;15.956;2023-04-19T03:06:07;101246.47;;;2.83;79.32
67987;BME280;54767;53.800;15.956;2023-04-19T03:08:35;101247.97;;;2.82;78.94
67987;BME280;54767;53.800;15.956;2023-04-19T03:11:04;101242.06;;;2.81;79.20
67987;BME280;54767;53.800;15.956;2023-04-19T03:13:32;101239.83;;;2.78;79.32
67987;BME280;54767;53.800;15.956;2023-04-19T03:16:00;101235.34;;;2.75;79.57
67987;BME280;54767;53.800;15.956;2023-04-19T03:18:29;101229.76;;;2.74;79.92
67987;BME280;54767;53.800;15.956;2023-04-19T03:20:57;101227.83;;;2.73;79.59
67987;BME280;54767;53.800;15.956;2023-04-19T03:23:25;101224.52;;;2.73;79.47
67987;BME280;54767;53.800;15.956;2023-04-19T03:25:54;101225.16;;;2.71;79.71
67987;BME280;54767;53.800;15.956;2023-04-19T03:28:23;101218.41;;;2.71;79.71
67987;BME280;54767;53.800;15.956;2023-04-19T03:30:52;101214.09;;;2.71;80.06
67987;BME280;54767;53.800;15.956;2023-04-19T03:33:20;101215.83;;;2.71;80.06
67987;BME280;54767;53.800;15.956;2023-04-19T03:35:49;101212.33;;;2.70;79.75
67987;BME280;54767;53.800;15.956;2023-04-19T03:38:17;101212.52;;;2.71;79.87
67987;BME280;54767;53.800;15.956;2023-04-19T03:40:46;101206.17;;;2.72;79.91
67987;BME280;54767;53.800;15.956;2023-04-19T03:43:14;101205.33;;;2.72;80.06
67987;BME280;54767;53.800;15.956;2023-04-19T03:45:43;101196.23;;;2.74;79.98
67987;BME280;54767;53.800;15.956;2023-04-19T03:48:11;101196.24;;;2.74;80.22
67987;BME280;54767;53.800;15.956;2023-04-19T03:50:39;101190.23;;;2.75;80.11
67987;BME280;54767;53.800;15.956;2023-04-19T03:53:07;101187.89;;;2.76;79.89
67987;BME280;54767;53.800;15.956;2023-04-19T03:55:36;101189.45;;;2.77;79.80
67987;BME280;54767;53.800;15.956;2023-04-19T03:58:04;101189.84;;;2.77;79.98
67987;BME280;54767;53.800;15.956;2023-04-19T04:00:32;101189.06;;;2.79;79.97
67987;BME280;54767;53.800;15.956;2023-04-19T04:03:02;101189.00;;;2.81;79.97
67987;BME280;54767;53.800;15.956;2023-04-19T04:05:31;101192.50;;;2.82;79.98
67987;BME280;54767;53.800;15.956;2023-04-19T04:07:59;101187.98;;;2.85;79.89
67987;BME280;54767;53.800;15.956;2023-04-19T04:10:27;101189.88;;;2.88;79.73
67987;BME280;54767;53.800;15.956;2023-04-19T04:12:56;101185.88;;;2.91;79.68
67987;BME280;54767;53.800;15.956;2023-04-19T04:15:24;101185.34;;;2.95;79.89
67987;BME280;54767;53.800;15.956;2023-04-19T04:17:52;101180.40;;;2.97;79.73
67987;BME280;54767;53.800;15.956;2023-04-19T04:20:21;101176.52;;;2.99;79.93
67987;BME280;54767;53.800;15.956;2023-04-19T04:22:49;101172.94;;;3.00;80.05
67987;BME280;54767;53.800;15.956;2023-04-19T04:25:18;101171.34;;;3.03;80.22
67987;BME280;54767;53.800;15.956;2023-04-19T04:27:50;101170.21;;;3.08;80.12
67987;BME280;54767;53.800;15.956;2023-04-19T04:30:19;101169.33;;;3.14;80.14
67987;BME280;54767;53.800;15.956;2023-04-19T04:32:51;101164.35;;;3.23;80.38
67987;BME280;54767;53.800;15.956;2023-04-19T04:35:20;101159.61;;;3.33;80.30
67987;BME280;54767;53.800;15.956;2023-04-19T04:37:48;101159.11;;;3.45;80.36
67987;BME280;54767;53.800;15.956;2023-04-19T04:40:17;101155.34;;;3.57;80.11
67987;BME280;54767;53.800;15.956;2023-04-19T04:42:51;101156.80;;;3.70;79.77
67987;BME280;54767;53.800;15.956;2023-04-19T04:45:21;101157.14;;;3.82;79.73
67987;BME280;54767;53.800;15.956;2023-04-19T04:47:49;101162.58;;;3.92;79.25
67987;BME280;54767;53.800;15.956;2023-04-19T04:50:18;101157.91;;;4.00;78.64
67987;BME280;54767;53.800;15.956;2023-04-19T04:52:47;101158.33;;;4.05;78.40
67987;BME280;54767;53.800;15.956;2023-04-19T04:55:16;101159.31;;;4.08;77.80
67987;BME280;54767;53.800;15.956;2023-04-19T04:57:45;101153.84;;;4.10;77.48
67987;BME280;54767;53.800;15.956;2023-04-19T05:00:13;101154.45;;;4.12;77.32
67987;BME280;54767;53.800;15.956;2023-04-19T05:02:41;101157.55;;;4.12;77.19
67987;BME280;54767;53.800;15.956;2023-04-19T05:05:10;101158.73;;;4.11;77.27
67987;BME280;54767;53.800;15.956;2023-04-19T05:07:38;101161.08;;;4.17;78.02
67987;BME280;54767;53.800;15.956;2023-04-19T05:10:08;101160.87;;;4.28;77.89
67987;BME280;54767;53.800;15.956;2023-04-19T05:12:36;101162.43;;;4.37;77.29
67987;BME280;54767;53.800;15.956;2023-04-19T05:15:05;101165.29;;;4.43;76.74
67987;BME280;54767;53.800;15.956;2023-04-19T05:17:34;101164.97;;;4.48;76.54
67987;BME280;54767;53.800;15.956;2023-04-19T05:20:03;101165.23;;;4.50;76.22
67987;BME280;54767;53.800;15.956;2023-04-19T05:22:32;101160.59;;;4.51;75.92
67987;BME280;54767;53.800;15.956;2023-04-19T05:25:01;101157.57;;;4.49;76.11
67987;BME280;54767;53.800;15.956;2023-04-19T05:27:29;101155.97;;;4.48;75.76
67987;BME280;54767;53.800;15.956;2023-04-19T05:29:57;101153.63;;;4.46;75.99
67987;BME280;54767;53.800;15.956;2023-04-19T05:32:26;101159.73;;;4.47;75.84
67987;BME280;54767;53.800;15.956;2023-04-19T05:34:56;101151.55;;;4.50;75.93
67987;BME280;54767;53.800;15.956;2023-04-19T05:37:24;101146.82;;;4.53;75.60
67987;BME280;54767;53.800;15.956;2023-04-19T05:39:52;101143.11;;;4.56;75.56
67987;BME280;54767;53.800;15.956;2023-04-19T05:42:21;101137.86;;;4.59;75.29
67987;BME280;54767;53.800;15.956;2023-04-19T05:44:49;101139.77;;;4.63;75.75
67987;BME280;54767;53.800;15.956;2023-04-19T05:47:17;101140.77;;;4.66;75.58
67987;BME280;54767;53.800;15.956;2023-04-19T05:49:46;101143.28;;;4.73;75.87
67987;BME280;54767;53.800;15.956;2023-04-19T05:52:14;101139.59;;;4.85;76.20
67987;BME280;54767;53.800;15.956;2023-04-19T05:54:42;101136.69;;;4.99;75.85
67987;BME280;54767;53.800;15.956;2023-04-19T05:57:11;101137.02;;;5.12;75.49
67987;BME280;54767;53.800;15.956;2023-04-19T05:59:40;101133.60;;;5.22;74.87
67987;BME280;54767;53.800;15.956;2023-04-19T06:02:09;101132.29;;;5.29;74.48
67987;BME280;54767;53.800;15.956;2023-04-19T06:04:38;101138.21;;;5.30;73.74
67987;BME280;54767;53.800;15.956;2023-04-19T06:07:07;101139.71;;;5.29;73.70
67987;BME280;54767;53.800;15.956;2023-04-19T06:09:54;101140.65;;;5.30;73.99
67987;BME280;54767;53.800;15.956;2023-04-19T06:12:22;101143.67;;;5.32;73.20
67987;BME280;54767;53.800;15.956;2023-04-19T06:14:51;101143.39;;;5.34;73.09
67987;BME280;54767;53.800;15.956;2023-04-19T06:17:19;101137.91;;;5.36;72.63
67987;BME280;54767;53.800;15.956;2023-04-19T06:19:53;101136.81;;;5.39;73.20
67987;BME280;54767;53.800;15.956;2023-04-19T06:22:22;101138.85;;;5.42;73.28
67987;BME280;54767;53.800;15.956;2023-04-19T06:24:50;101135.48;;;5.44;72.84
67987;BME280;54767;53.800;15.956;2023-04-19T06:27:18;101134.86;;;5.47;72.94
67987;BME280;54767;53.800;15.956;2023-04-19T06:29:46;101133.25;;;5.50;73.05
67987;BME280;54767;53.800;15.956;2023-04-19T06:32:17;101128.59;;;5.56;72.78
67987;BME280;54767;53.800;15.956;2023-04-19T06:34:46;101134.17;;;5.66;72.73
67987;BME280;54767;53.800;15.956;2023-04-19T06:37:14;101131.32;;;5.79;72.63
67987;BME280;54767;53.800;15.956;2023-04-19T06:39:42;101135.27;;;5.92;72.38
67987;BME280;54767;53.800;15.956;2023-04-19T06:42:11;101134.86;;;5.99;71.92
67987;BME280;54767;53.800;15.956;2023-04-19T06:44:39;101138.80;;;6.03;71.56
67987;BME280;54767;53.800;15.956;2023-04-19T06:47:07;101138.29;;;6.08;71.69
67987;BME280;54767;53.800;15.956;2023-04-19T06:49:36;101136.84;;;6.11;70.95
67987;BME280;54767;53.800;15.956;2023-04-19T06:52:04;101137.98;;;6.15;71.38
67987;BME280;54767;53.800;15.956;2023-04-19T06:54:32;101135.23;;;6.20;71.55
67987;BME280;54767;53.800;15.956;2023-04-19T06:57:00;101134.56;;;6.26;71.53
67987;BME280;54767;53.800;15.956;2023-04-19T06:59:30;101132.10;;;6.36;71.68
67987;BME280;54767;53.800;15.956;2023-04-19T07:01:59;101129.52;;;6.47;71.95
67987;BME280;54767;53.800;15.956;2023-04-19T07:04:27;101124.71;;;6.59;71.47
67987;BME280;54767;53.800;15.956;2023-04-19T07:06:56;101125.16;;;6.74;70.90
67987;BME280;54767;53.800;15.956;2023-04-19T07:09:25;101114.92;;;6.86;70.60
67987;BME280;54767;53.800;15.956;2023-04-19T07:11:53;101113.37;;;6.92;70.17
67987;BME280;54767;53.800;15.956;2023-04-19T07:14:22;101108.50;;;6.97;70.79
67987;BME280;54767;53.800;15.956;2023-04-19T07:16:51;101108.85;;;7.03;69.73
67987;BME280;54767;53.800;15.956;2023-04-19T07:19:20;101108.69;;;7.03;68.79
67987;BME280;54767;53.800;15.956;2023-04-19T07:21:50;101107.31;;;7.04;68.87
67987;BME280;54767;53.800;15.956;2023-04-19T07:24:18;101104.27;;;7.07;69.32
67987;BME280;54767;53.800;15.956;2023-04-19T07:26:47;101108.77;;;7.18;69.15
67987;BME280;54767;53.800;15.956;2023-04-19T07:29:15;101106.09;;;7.27;68.82
67987;BME280;54767;53.800;15.956;2023-04-19T07:31:43;101102.23;;;7.33;67.48
67987;BME280;54767;53.800;15.956;2023-04-19T07:34:12;101099.75;;;7.37;68.46
67987;BME280;54767;53.800;15.956;2023-04-19T07:36:41;101100.84;;;7.44;68.76
67987;BME280;54767;53.800;15.956;2023-04-19T07:39:09;101098.95;;;7.51;68.51
67987;BME280;54767;53.800;15.956;2023-04-19T07:41:38;101095.13;;;7.58;67.63
67987;BME280;54767;53.800;15.956;2023-04-19T07:44:06;101094.24;;;7.64;67.53
67987;BME280;54767;53.800;15.956;2023-04-19T07:46:34;101088.48;;;7.69;66.67
67987;BME280;54767;53.800;15.956;2023-04-19T07:49:03;101088.63;;;7.75;66.97
67987;BME280;54767;53.800;15.956;2023-04-19T07:51:31;101084.17;;;7.85;66.73
67987;BME280;54767;53.800;15.956;2023-04-19T07:53:59;101085.02;;;7.97;67.25
67987;BME280;54767;53.800;15.956;2023-04-19T07:56:28;101079.24;;;8.09;67.47
67987;BME280;54767;53.800;15.956;2023-04-19T07:58:56;101077.13;;;8.23;67.41
67987;BME280;54767;53.800;15.956;2023-04-19T08:01:35;101065.73;;;8.34;66.77
67987;BME280;54767;53.800;15.956;2023-04-19T08:04:04;101066.01;;;8.44;65.67
67987;BME280;54767;53.800;15.956;2023-04-19T08:06:33;101061.59;;;8.49;64.85
67987;BME280;54767;53.800;15.956;2023-04-19T08:09:01;101059.48;;;8.56;63.94
67987;BME280;54767;53.800;15.956;2023-04-19T08:11:30;101059.08;;;8.61;64.13
67987;BME280;54767;53.800;15.956;2023-04-19T08:13:58;101051.75;;;8.68;63.71
67987;BME280;54767;53.800;15.956;2023-04-19T08:16:41;101048.27;;;8.76;63.12
67987;BME280;54767;53.800;15.956;2023-04-19T08:19:30;101044.75;;;8.84;62.44
67987;BME280;54767;53.800;15.956;2023-04-19T08:21:58;101036.02;;;8.91;62.43
67987;BME280;54767;53.800;15.956;2023-04-19T08:24:26;101036.49;;;8.97;60.51
67987;BME280;54767;53.800;15.956;2023-04-19T08:26:55;101036.17;;;8.99;60.73
67987;BME280;54767;53.800;15.956;2023-04-19T08:29:28;101030.69;;;9.03;60.26
67987;BME280;54767;53.800;15.956;2023-04-19T08:31:56;101026.38;;;9.06;58.71
67987;BME280;54767;53.800;15.956;2023-04-19T08:34:25;101024.17;;;9.09;60.11
67987;BME280;54767;53.800;15.956;2023-04-19T08:36:53;101017.82;;;9.15;59.04
67987;BME280;54767;53.800;15.956;2023-04-19T08:39:31;101016.19;;;9.21;58.94
67987;BME280;54767;53.800;15.956;2023-04-19T08:42:06;101012.81;;;9.26;58.47
67987;BME280;54767;53.800;15.956;2023-04-19T08:44:55;101008.57;;;9.33;58.90
67987;BME280;54767;53.800;15.956;2023-04-19T08:47:45;101012.73;;;9.40;57.70
67987;BME280;54767;53.800;15.956;2023-04-19T08:50:28;101008.17;;;9.47;58.29
67987;BME280;54767;53.800;15.956;2023-04-19T08:53:12;101005.14;;;9.54;56.67
67987;BME280;54767;53.800;15.956;2023-04-19T08:55:44;100996.09;;;9.57;57.76
67987;BME280;54767;53.800;15.956;2023-04-19T08:58:33;100998.16;;;9.64;57.19
67987;BME280;54767;53.800;15.956;2023-04-19T09:01:21;101001.03;;;9.69;57.06
67987;BME280;54767;53.800;15.956;2023-04-19T09:04:03;101005.84;;;9.72;56.30
67987;BME280;54767;53.800;15.956;2023-04-19T09:06:54;100993.65;;;9.76;56.21
67987;BME280;54767;53.800;15.956;2023-04-19T09:09:25;100994.73;;;9.79;56.70
67987;BME280;54767;53.800;15.956;2023-04-19T09:11:56;100987.84;;;9.84;56.66
67987;BME280;54767;53.800;15.956;2023-04-19T09:14:26;100982.14;;;9.88;57.43
67987;BME280;54767;53.800;15.956;2023-04-19T09:17:15;100980.28;;;9.92;58.14
67987;BME280;54767;53.800;15.956;2023-04-19T09:19:48;100972.58;;;9.91;58.48
67987;BME280;54767;53.800;15.956;2023-04-19T09:22:17;100980.96;;;9.91;58.24
67987;BME280;54767;53.800;15.956;2023-04-19T09:24:46;100978.89;;;9.92;58.18
67987;BME280;54767;53.800;15.956;2023-04-19T09:27:35;100978.13;;;9.89;59.02
67987;BME280;54767;53.800;15.956;2023-04-19T09:30:05;100977.10;;;9.90;60.55
67987;BME280;54767;53.800;15.956;2023-04-19T09:32:46;100981.48;;;9.90;58.02
67987;BME280;54767;53.800;15.956;2023-04-19T09:35:15;100979.66;;;9.86;56.98
67987;BME280;54767;53.800;15.956;2023-04-19T09:37:57;100976.23;;;9.80;56.51
67987;BME280;54767;53.800;15.956;2023-04-19T09:40:33;100973.50;;;9.73;57.62
67987;BME280;54767;53.800;15.956;2023-04-19T09:43:02;100969.48;;;9.74;57.54
67987;BME280;54767;53.800;15.956;2023-04-19T09:45:51;100969.89;;;9.78;55.87
67987;BME280;54767;53.800;15.956;2023-04-19T09:48:21;100966.04;;;9.77;55.98
67987;BME280;54767;53.800;15.956;2023-04-19T09:50:54;100965.56;;;9.79;56.22
67987;BME280;54767;53.800;15.956;2023-04-19T09:53:31;100959.75;;;9.77;55.38
67987;BME280;54767;53.800;15.956;2023-04-19T09:56:04;100960.79;;;9.76;56.13
67987;BME280;54767;53.800;15.956;2023-04-19T09:58:33;100957.48;;;9.77;54.56
67987;BME280;54767;53.800;15.956;2023-04-19T10:01:18;100949.23;;;9.75;55.55
67987;BME280;54767;53.800;15.956;2023-04-19T10:03:48;100946.59;;;9.73;55.10
67987;BME280;54767;53.800;15.956;2023-04-19T10:06:18;100944.88;;;9.76;55.86
67987;BME280;54767;53.800;15.956;2023-04-19T10:08:52;100937.77;;;9.79;56.20
67987;BME280;54767;53.800;15.956;2023-04-19T10:11:22;100936.66;;;9.86;56.47
67987;BME280;54767;53.800;15.956;2023-04-19T10:13:56;100931.51;;;9.92;56.14
67987;BME280;54767;53.800;15.956;2023-04-19T10:16:29;100928.55;;;9.94;55.49
67987;BME280;54767;53.800;15.956;2023-04-19T10:18:58;100917.83;;;9.89;54.43
67987;BME280;54767;53.800;15.956;2023-04-19T10:21:28;100922.70;;;9.88;55.66
67987;BME280;54767;53.800;15.956;2023-04-19T10:23:58;100918.47;;;9.86;55.05
67987;BME280;54767;53.800;15.956;2023-04-19T10:26:26;100912.63;;;9.81;55.89
67987;BME280;54767;53.800;15.956;2023-04-19T10:28:55;100908.48;;;9.84;55.78
67987;BME280;54767;53.800;15.956;2023-04-19T10:31:25;100902.94;;;9.88;55.93
67987;BME280;54767;53.800;15.956;2023-04-19T10:33:53;100896.48;;;9.90;55.19
67987;BME280;54767;53.800;15.956;2023-04-19T10:36:26;100890.27;;;9.94;54.58
67987;BME280;54767;53.800;15.956;2023-04-19T10:38:55;100880.89;;;10.00;54.38
67987;BME280;54767;53.800;15.956;2023-04-19T10:41:55;100875.41;;;10.07;54.36
67987;BME280;54767;53.800;15.956;2023-04-19T10:44:24;100873.23;;;10.13;53.28
67987;BME280;54767;53.800;15.956;2023-04-19T10:46:52;100867.66;;;10.15;52.28
67987;BME280;54767;53.800;15.956;2023-04-19T10:49:22;100868.87;;;10.15;53.56
67987;BME280;54767;53.800;15.956;2023-04-19T10:51:50;100868.08;;;10.21;54.34
67987;BME280;54767;53.800;15.956;2023-04-19T10:54:33;100863.35;;;10.21;53.86
67987;BME280;54767;53.800;15.956;2023-04-19T10:57:06;100864.71;;;10.17;53.84
67987;BME280;54767;53.800;15.956;2023-04-19T10:59:36;100869.02;;;10.12;54.58
67987;BME280;54767;53.800;15.956;2023-04-19T11:07:20;100872.93;;;10.17;54.08
67987;BME280;54767;53.800;15.956;2023-04-19T11:09:49;100872.50;;;10.24;54.56
67987;BME280;54767;53.800;15.956;2023-04-19T11:12:20;100872.46;;;10.31;53.81
67987;BME280;54767;53.800;15.956;2023-04-19T11:14:53;100867.23;;;10.33;53.76
67987;BME280;54767;53.800;15.956;2023-04-19T11:17:27;100864.10;;;10.34;52.65
67987;BME280;54767;53.800;15.956;2023-04-19T11:20:00;100860.68;;;10.28;51.89
67987;BME280;54767;53.800;15.956;2023-04-19T11:25:05;100863.92;;;10.23;53.87
67987;BME280;54767;53.800;15.956;2023-04-19T11:27:34;100853.08;;;10.23;54.11
67987;BME280;54767;53.800;15.956;2023-04-19T11:30:05;100851.00;;;10.25;53.54
67987;BME280;54767;53.800;15.956;2023-04-19T11:32:35;100845.23;;;10.25;53.46
67987;BME280;54767;53.800;15.956;2023-04-19T11:35:05;100845.33;;;10.29;54.05
67987;BME280;54767;53.800;15.956;2023-04-19T11:37:37;100842.59;;;10.35;53.98
67987;BME280;54767;53.800;15.956;2023-04-19T11:40:07;100843.20;;;10.41;53.97
67987;BME280;54767;53.800;15.956;2023-04-19T11:42:38;100843.23;;;10.45;53.60
67987;BME280;54767;53.800;15.956;2023-04-19T11:45:08;100838.90;;;10.48;54.08
67987;BME280;54767;53.800;15.956;2023-04-19T11:47:53;100842.30;;;10.55;54.36
67987;BME280;54767;53.800;15.956;2023-04-19T11:50:32;100841.44;;;10.54;53.33
67987;BME280;54767;53.800;15.956;2023-04-19T11:55:40;100840.79;;;10.45;53.71
67987;BME280;54767;53.800;15.956;2023-04-19T11:58:24;100843.70;;;10.40;54.14
67987;BME280;54767;53.800;15.956;2023-04-19T12:00:54;100842.56;;;10.33;53.77
67987;BME280;54767;53.800;15.956;2023-04-19T12:03:22;100838.61;;;10.27;54.81
67987;BME280;54767;53.800;15.956;2023-04-19T12:05:58;100843.45;;;10.23;54.34
67987;BME280;54767;53.800;15.956;2023-04-19T12:08:52;100845.95;;;10.14;54.56
67987;BME280;54767;53.800;15.956;2023-04-19T12:11:24;100846.55;;;10.06;54.88
67987;BME280;54767;53.800;15.956;2023-04-19T12:14:13;100843.42;;;9.94;55.70
67987;BME280;54767;53.800;15.956;2023-04-19T12:16:42;100844.02;;;9.76;56.82
67987;BME280;54767;53.800;15.956;2023-04-19T12:19:14;100832.27;;;9.62;57.85
67987;BME280;54767;53.800;15.956;2023-04-19T12:21:44;100831.02;;;9.49;57.86
67987;BME280;54767;53.800;15.956;2023-04-19T12:24:15;100823.05;;;9.42;58.41
67987;BME280;54767;53.800;15.956;2023-04-19T12:26:55;100828.34;;;9.35;59.00
67987;BME280;54767;53.800;15.956;2023-04-19T12:29:25;100828.21;;;9.27;59.34
67987;BME280;54767;53.800;15.956;2023-04-19T12:31:53;100835.61;;;9.20;59.95
67987;BME280;54767;53.800;15.956;2023-04-19T12:34:22;100834.95;;;9.12;59.68
67987;BME280;54767;53.800;15.956;2023-04-19T12:36:50;100841.81;;;9.06;59.97
67987;BME280;54767;53.800;15.956;2023-04-19T12:39:18;100844.35;;;9.01;60.32
67987;BME280;54767;53.800;15.956;2023-04-19T12:41:47;100851.20;;;8.94;60.05
67987;BME280;54767;53.800;15.956;2023-04-19T12:44:16;100857.67;;;8.85;60.05
67987;BME280;54767;53.800;15.956;2023-04-19T12:46:44;100860.42;;;8.74;60.07
67987;BME280;54767;53.800;15.956;2023-04-19T12:49:13;100856.61;;;8.57;60.36
67987;BME280;54767;53.800;15.956;2023-04-19T12:51:41;100854.20;;;8.42;61.34
67987;BME280;54767;53.800;15.956;2023-04-19T12:54:10;100850.77;;;8.29;61.58
67987;BME280;54767;53.800;15.956;2023-04-19T12:56:38;100859.26;;;8.18;62.49
67987;BME280;54767;53.800;15.956;2023-04-19T12:59:07;100860.59;;;8.08;62.94
67987;BME280;54767;53.800;15.956;2023-04-19T13:01:35;100857.05;;;7.98;63.01
67987;BME280;54767;53.800;15.956;2023-04-19T13:04:04;100862.85;;;7.92;64.02
67987;BME280;54767;53.800;15.956;2023-04-19T13:06:33;100853.14;;;7.86;64.40
67987;BME280;54767;53.800;15.956;2023-04-19T13:09:01;100856.88;;;7.83;65.35
67987;BME280;54767;53.800;15.956;2023-04-19T13:11:40;100858.23;;;7.80;65.47
67987;BME280;54767;53.800;15.956;2023-04-19T13:14:09;100860.28;;;7.78;65.75
67987;BME280;54767;53.800;15.956;2023-04-19T13:16:37;100859.14;;;7.75;66.11
67987;BME280;54767;53.800;15.956;2023-04-19T13:19:05;100859.42;;;7.72;66.39
67987;BME280;54767;53.800;15.956;2023-04-19T13:21:34;100864.54;;;7.67;66.49
67987;BME280;54767;53.800;15.956;2023-04-19T13:24:02;100857.80;;;7.62;66.48
67987;BME280;54767;53.800;15.956;2023-04-19T13:26:31;100860.95;;;7.56;66.54
67987;BME280;54767;53.800;15.956;2023-04-19T13:29:01;100866.29;;;7.53;67.27
67987;BME280;54767;53.800;15.956;2023-04-19T13:31:29;100861.95;;;7.46;66.99
67987;BME280;54767;53.800;15.956;2023-04-19T13:33:58;100865.99;;;7.34;67.07
67987;BME280;54767;53.800;15.956;2023-04-19T13:36:27;100863.92;;;7.28;67.88
67987;BME280;54767;53.800;15.956;2023-04-19T13:38:56;100867.77;;;7.21;68.27
67987;BME280;54767;53.800;15.956;2023-04-19T13:41:24;100869.27;;;7.12;69.07
67987;BME280;54767;53.800;15.956;2023-04-19T13:43:52;100865.77;;;6.99;69.49
67987;BME280;54767;53.800;15.956;2023-04-19T13:46:21;100868.83;;;6.89;70.09